Mariq — SVA2152 — position and weather

sailwx.info

Track history (hours):
 
Tides and Currents Weather Stations Pressure Air Temp Water Temp Dewpoint Dewpoint Depression Visibility Wind Speed Wind Dir Waves Ship Positions

Mariq

Last reported at 2014-Sep-15 23:30 UTC. Time now 2014-Sep-19 22:01 UTC.
Position N 37°05' E 027°02'.

Length 57 m.

Type: Tanker. MMSI: 239758424.

Date/timePositionNaut miles runAvg speedWind from/ knotsBaromVisibWave heightAir tempDewpointWater temp
2014-Sep-15 23:30N 37°05' E 027°02'1110.1
2014-Sep-15 22:26N 37°15' E 026°55'910.2
2014-Sep-15 21:33N 37°22' E 026°48'4 3.9
2014-Sep-15 20:33N 37°23' E 026°43'0 0.5
2014-Sep-15 19:32N 37°23' E 026°44'0 0.0
2014-Sep-15 18:28N 37°23' E 026°44'0 0.0
2014-Sep-15 17:29N 37°23' E 026°44'0 0.0
2014-Sep-15 16:32N 37°23' E 026°44'0 0.0
2014-Sep-15 15:33N 37°23' E 026°44'0 0.0
2014-Sep-15 14:22N 37°23' E 026°44'0 0.0
2014-Sep-15 13:32N 37°23' E 026°44'0 0.0
2014-Sep-15 12:33N 37°23' E 026°44'1 0.2
2014-Sep-15 08:21N 37°22' E 026°44'5 6.0
2014-Sep-15 07:33N 37°17' E 026°45'1 0.3
2014-Sep-15 05:10N 37°18' E 026°46'0 0.0
2014-Sep-15 02:33N 37°18' E 026°46'0 0.0
2014-Sep-15 01:34N 37°18' E 026°46'0 0.0
2014-Sep-15 00:34N 37°18' E 026°46'0 0.0
2014-Sep-14 23:34N 37°18' E 026°46'0 0.0
2014-Sep-14 22:33N 37°18' E 026°46'0 0.0
2014-Sep-14 21:34N 37°18' E 026°46'0 0.0
2014-Sep-14 20:33N 37°18' E 026°46'0 0.0
2014-Sep-14 19:30N 37°18' E 026°46'0 0.0
2014-Sep-14 18:32N 37°18' E 026°46'0 0.0
2014-Sep-14 17:33N 37°18' E 026°46'0 0.0
2014-Sep-14 16:33N 37°18' E 026°46'6 5.9
2014-Sep-14 15:33N 37°13' E 026°51'9 8.4
2014-Sep-14 14:32N 37°07' E 026°58'9 8.2
2014-Sep-14 13:23N 37°01' E 027°07'17 7.5
2014-Sep-14 11:09N 36°49' E 027°22'14 0.6
2014-Sep-13 11:11N 36°59' E 027°10'28 1.3
2014-Sep-12 13:27N 37°25' E 026°56'9 9.5
2014-Sep-12 12:32N 37°21' E 026°46'2 0.3
2014-Sep-12 04:06N 37°22' E 026°44'2 3.3
2014-Sep-12 03:26N 37°21' E 026°46'5 6.0
2014-Sep-12 02:33N 37°19' E 026°52'53 1.9
2014-Sep-10 22:11N 36°31' E 027°21'35 9.5
2014-Sep-10 18:32N 36°43' E 026°40'1410.0
2014-Sep-10 17:09N 36°48' E 026°24'910.6
2014-Sep-10 16:20N 36°51' E 026°14'810.6
2014-Sep-10 15:33N 36°55' E 026°05'5 5.4
2014-Sep-10 14:33N 36°54' E 025°59'0 0.1
2014-Sep-10 13:34N 36°54' E 025°59'0 0.0
2014-Sep-10 12:33N 36°54' E 025°59'0 0.0
2014-Sep-10 11:34N 36°54' E 025°59'0 0.0
2014-Sep-10 10:34N 36°54' E 025°59'0 0.0
2014-Sep-10 09:34N 36°54' E 025°59'0 0.0
2014-Sep-10 04:33N 36°54' E 025°59'0 0.0
2014-Sep-10 03:33N 36°54' E 025°59'0 0.0
2014-Sep-10 02:33N 36°54' E 025°59'0 0.1
2014-Sep-10 01:33N 36°54' E 025°58'8 7.7
2014-Sep-10 00:33N 36°60' E 025°52'9 8.5
2014-Sep-09 23:34N 37°06' E 025°45'9 8.7
2014-Sep-09 22:33N 37°12' E 025°36'8 8.5
2014-Sep-09 21:34N 37°17' E 025°28'8 8.0
2014-Sep-09 20:33N 37°19' E 025°18'8 8.4
2014-Sep-09 19:34N 37°19' E 025°08'8 8.3
2014-Sep-09 18:34N 37°20' E 024°58'8 8.0
2014-Sep-09 17:33N 37°23' E 024°48'8 8.3
2014-Sep-09 16:34N 37°27' E 024°39'8 8.3
2014-Sep-09 15:33N 37°29' E 024°29'18 8.1
2014-Sep-09 13:21N 37°36' E 024°08'25 1.5
2014-Sep-08 20:20N 37°26' E 024°37'810.2
2014-Sep-08 19:33N 37°23' E 024°46'1110.5
2014-Sep-08 18:33N 37°20' E 024°59'1010.1
2014-Sep-08 17:33N 37°19' E 025°11'10 9.7
2014-Sep-08 16:33N 37°18' E 025°24'11 9.9
2014-Sep-08 15:26N 37°17' E 025°38'8 9.7
2014-Sep-08 14:33N 37°17' E 025°48'9 9.5
2014-Sep-08 13:33N 37°17' E 026°00'9 9.3
2014-Sep-08 12:34N 37°16' E 026°12'10 9.3
2014-Sep-08 11:27N 37°16' E 026°25'9 8.5
2014-Sep-08 10:27N 37°17' E 026°35'  
Track history (hours):
 
Tides and Currents Weather Stations Pressure Air Temp Water Temp Dewpoint Dewpoint Depression Visibility Wind Speed Wind Dir Waves Ship Positions

Mariq

Last reported at 2014-Sep-15 23:30 UTC. Time now 2014-Sep-19 22:01 UTC.
Position N 37°05' E 027°02'.

Length 57 m.

Type: Tanker. MMSI: 239758424.

Date/timePositionNaut miles runAvg speedWind from/ knotsBaromVisibWave heightAir tempDewpointWater temp
2014-Sep-15 23:30N 37°05' E 027°02'1110.1
2014-Sep-15 22:26N 37°15' E 026°55'910.2
2014-Sep-15 21:33N 37°22' E 026°48'4 3.9
2014-Sep-15 20:33N 37°23' E 026°43'0 0.5
2014-Sep-15 19:32N 37°23' E 026°44'0 0.0
2014-Sep-15 18:28N 37°23' E 026°44'0 0.0
2014-Sep-15 17:29N 37°23' E 026°44'0 0.0
2014-Sep-15 16:32N 37°23' E 026°44'0 0.0
2014-Sep-15 15:33N 37°23' E 026°44'0 0.0
2014-Sep-15 14:22N 37°23' E 026°44'0 0.0
2014-Sep-15 13:32N 37°23' E 026°44'0 0.0
2014-Sep-15 12:33N 37°23' E 026°44'1 0.2
2014-Sep-15 08:21N 37°22' E 026°44'5 6.0
2014-Sep-15 07:33N 37°17' E 026°45'1 0.3
2014-Sep-15 05:10N 37°18' E 026°46'0 0.0
2014-Sep-15 02:33N 37°18' E 026°46'0 0.0
2014-Sep-15 01:34N 37°18' E 026°46'0 0.0
2014-Sep-15 00:34N 37°18' E 026°46'0 0.0
2014-Sep-14 23:34N 37°18' E 026°46'0 0.0
2014-Sep-14 22:33N 37°18' E 026°46'0 0.0
2014-Sep-14 21:34N 37°18' E 026°46'0 0.0
2014-Sep-14 20:33N 37°18' E 026°46'0 0.0
2014-Sep-14 19:30N 37°18' E 026°46'0 0.0
2014-Sep-14 18:32N 37°18' E 026°46'0 0.0
2014-Sep-14 17:33N 37°18' E 026°46'0 0.0
2014-Sep-14 16:33N 37°18' E 026°46'6 5.9
2014-Sep-14 15:33N 37°13' E 026°51'9 8.4
2014-Sep-14 14:32N 37°07' E 026°58'9 8.2
2014-Sep-14 13:23N 37°01' E 027°07'17 7.5
2014-Sep-14 11:09N 36°49' E 027°22'14 0.6
2014-Sep-13 11:11N 36°59' E 027°10'28 1.3
2014-Sep-12 13:27N 37°25' E 026°56'9 9.5
2014-Sep-12 12:32N 37°21' E 026°46'2 0.3
2014-Sep-12 04:06N 37°22' E 026°44'2 3.3
2014-Sep-12 03:26N 37°21' E 026°46'5 6.0
2014-Sep-12 02:33N 37°19' E 026°52'53 1.9
2014-Sep-10 22:11N 36°31' E 027°21'35 9.5
2014-Sep-10 18:32N 36°43' E 026°40'1410.0
2014-Sep-10 17:09N 36°48' E 026°24'910.6
2014-Sep-10 16:20N 36°51' E 026°14'810.6
2014-Sep-10 15:33N 36°55' E 026°05'5 5.4
2014-Sep-10 14:33N 36°54' E 025°59'0 0.1
2014-Sep-10 13:34N 36°54' E 025°59'0 0.0
2014-Sep-10 12:33N 36°54' E 025°59'0 0.0
2014-Sep-10 11:34N 36°54' E 025°59'0 0.0
2014-Sep-10 10:34N 36°54' E 025°59'0 0.0
2014-Sep-10 09:34N 36°54' E 025°59'0 0.0
2014-Sep-10 04:33N 36°54' E 025°59'0 0.0
2014-Sep-10 03:33N 36°54' E 025°59'0 0.0
2014-Sep-10 02:33N 36°54' E 025°59'0 0.1
2014-Sep-10 01:33N 36°54' E 025°58'8 7.7
2014-Sep-10 00:33N 36°60' E 025°52'9 8.5
2014-Sep-09 23:34N 37°06' E 025°45'9 8.7
2014-Sep-09 22:33N 37°12' E 025°36'8 8.5
2014-Sep-09 21:34N 37°17' E 025°28'8 8.0
2014-Sep-09 20:33N 37°19' E 025°18'8 8.4
2014-Sep-09 19:34N 37°19' E 025°08'8 8.3
2014-Sep-09 18:34N 37°20' E 024°58'8 8.0
2014-Sep-09 17:33N 37°23' E 024°48'8 8.3
2014-Sep-09 16:34N 37°27' E 024°39'8 8.3
2014-Sep-09 15:33N 37°29' E 024°29'18 8.1
2014-Sep-09 13:21N 37°36' E 024°08'25 1.5
2014-Sep-08 20:20N 37°26' E 024°37'810.2
2014-Sep-08 19:33N 37°23' E 024°46'1110.5
2014-Sep-08 18:33N 37°20' E 024°59'1010.1
2014-Sep-08 17:33N 37°19' E 025°11'10 9.7
2014-Sep-08 16:33N 37°18' E 025°24'11 9.9
2014-Sep-08 15:26N 37°17' E 025°38'8 9.7
2014-Sep-08 14:33N 37°17' E 025°48'9 9.5
2014-Sep-08 13:33N 37°17' E 026°00'9 9.3
2014-Sep-08 12:34N 37°16' E 026°12'10 9.3
2014-Sep-08 11:27N 37°16' E 026°25'9 8.5
2014-Sep-08 10:27N 37°17' E 026°35'  

Dump ship's entire track history